createdAt,value
2019-05-15T00:00:10.729Z,10.30
2019-05-15T00:01:11.237Z,10.28
2019-05-15T00:02:11.684Z,10.28
2019-05-15T00:03:12.276Z,10.28
2019-05-15T00:04:12.702Z,10.36
2019-05-15T00:05:13.222Z,10.31
2019-05-15T00:06:13.665Z,10.30
2019-05-15T00:07:14.285Z,10.30
2019-05-15T00:08:14.718Z,10.25
2019-05-15T00:09:15.287Z,10.34
2019-05-15T00:10:17.936Z,10.28
2019-05-15T00:11:19.192Z,10.27
2019-05-15T00:12:19.860Z,10.23
2019-05-15T00:13:20.334Z,10.21
2019-05-15T00:14:20.782Z,10.20
2019-05-15T00:15:21.375Z,10.15
2019-05-15T00:16:21.816Z,10.23
2019-05-15T00:17:22.342Z,10.12
2019-05-15T00:18:22.778Z,10.21
2019-05-15T00:19:23.361Z,10.12
2019-05-15T00:20:23.803Z,10.12
2019-05-15T00:21:24.285Z,10.18
2019-05-15T00:22:24.733Z,10.15
2019-05-15T00:23:25.319Z,10.18
2019-05-15T00:24:25.763Z,10.13
2019-05-15T00:25:28.293Z,10.13
2019-05-15T00:26:30.045Z,10.10
2019-05-15T00:27:30.707Z,10.20
2019-05-15T00:28:31.140Z,10.09
2019-05-15T00:29:31.717Z,10.20
2019-05-15T00:30:32.152Z,10.10
2019-05-15T00:31:32.763Z,10.13
2019-05-15T00:32:33.213Z,10.09
2019-05-15T00:33:33.792Z,10.13
2019-05-15T00:34:34.231Z,10.09
2019-05-15T00:35:34.830Z,10.17
2019-05-15T00:36:35.266Z,10.07
2019-05-15T00:37:38.417Z,10.13
2019-05-15T00:38:39.328Z,10.07
2019-05-15T00:39:39.874Z,10.03
2019-05-15T00:40:40.305Z,10.10
2019-05-15T00:41:50.517Z,10.06
2019-05-15T00:42:48.859Z,10.09
2019-05-15T00:43:49.619Z,10.09
2019-05-15T00:44:50.062Z,10.05
2019-05-15T00:45:50.672Z,10.03
2019-05-15T00:46:51.108Z,10.06
2019-05-15T00:47:51.757Z,10.03
2019-05-15T00:48:52.188Z,10.06
2019-05-15T00:49:52.742Z,9.97
2019-05-15T00:50:53.173Z,9.92
2019-05-15T00:51:53.777Z,9.94
2019-05-15T00:52:54.219Z,9.92
2019-05-15T00:53:54.821Z,9.97
2019-05-15T00:54:55.253Z,9.97
2019-05-15T00:55:57.903Z,9.91
2019-05-15T00:56:58.529Z,9.77
2019-05-15T00:57:59.074Z,9.91
2019-05-15T00:58:59.507Z,9.87
2019-05-15T01:00:00.083Z,9.85
2019-05-15T01:01:00.514Z,9.88
2019-05-15T01:02:01.119Z,9.81
2019-05-15T01:03:01.572Z,9.80
2019-05-15T01:04:02.152Z,9.81
2019-05-15T01:05:02.577Z,9.81
2019-05-15T01:06:03.197Z,9.81
2019-05-15T01:07:03.618Z,9.67
2019-05-15T01:08:04.271Z,9.76
2019-05-15T01:09:04.695Z,9.72
2019-05-15T01:10:05.269Z,9.63
2019-05-15T01:11:05.698Z,9.77
2019-05-15T01:12:06.789Z,9.73
2019-05-15T01:13:09.350Z,9.70
2019-05-15T01:14:12.211Z,9.76
2019-05-15T01:15:12.754Z,9.67
2019-05-15T01:16:13.394Z,9.56
2019-05-15T01:17:13.854Z,9.63
2019-05-15T01:18:15.461Z,9.58
2019-05-15T01:19:15.889Z,9.56
2019-05-15T01:20:18.831Z,9.64
2019-05-15T01:21:19.405Z,9.52
2019-05-15T01:22:20.035Z,9.59
2019-05-15T01:23:20.474Z,9.55
2019-05-15T01:24:21.041Z,9.52
2019-05-15T01:25:21.473Z,9.55
2019-05-15T01:26:22.074Z,9.42
2019-05-15T01:27:22.558Z,9.47
2019-05-15T01:28:23.211Z,9.52
2019-05-15T01:29:36.504Z,9.51
2019-05-15T01:30:30.062Z,9.49
2019-05-15T01:31:30.612Z,9.48
2019-05-15T01:32:31.077Z,9.48
2019-05-15T01:33:31.640Z,9.49
2019-05-15T01:34:32.066Z,9.51
2019-05-15T01:35:32.682Z,9.48
2019-05-15T01:36:33.104Z,9.42
2019-05-15T01:37:33.754Z,9.47
2019-05-15T01:38:34.180Z,9.40
2019-05-15T01:39:34.763Z,9.49
2019-05-15T01:40:35.192Z,9.37
2019-05-15T01:41:35.795Z,9.44
2019-05-15T01:42:38.374Z,9.37
2019-05-15T01:43:39.288Z,9.40
2019-05-15T01:44:39.718Z,9.36
2019-05-15T01:45:40.327Z,9.37
2019-05-15T01:46:40.758Z,9.36
2019-05-15T01:47:41.397Z,9.34
2019-05-15T01:48:41.829Z,9.39
2019-05-15T01:49:42.399Z,9.39
2019-05-15T01:50:42.822Z,9.33
2019-05-15T01:51:43.436Z,9.30
2019-05-15T01:52:43.891Z,9.19
2019-05-15T01:53:44.378Z,9.24
2019-05-15T01:54:44.800Z,9.22
2019-05-15T01:55:45.318Z,9.26
2019-05-15T01:56:45.749Z,9.21
2019-05-15T01:57:48.606Z,9.24
2019-05-15T01:58:49.170Z,9.19
2019-05-15T01:59:57.090Z,9.22
2019-05-15T02:00:56.042Z,9.13
2019-05-15T02:01:58.874Z,9.09
2019-05-15T02:02:59.526Z,9.05
2019-05-15T02:04:00.009Z,9.09
2019-05-15T02:05:00.438Z,9.12
2019-05-15T02:06:00.954Z,9.09
2019-05-15T02:07:01.379Z,9.09
2019-05-15T02:08:01.916Z,9.00
2019-05-15T02:09:02.349Z,9.03
2019-05-15T02:10:02.821Z,9.08
2019-05-15T02:11:03.256Z,8.96
2019-05-15T02:12:03.758Z,8.99
2019-05-15T02:13:04.270Z,8.95
2019-05-15T02:14:04.787Z,8.89
2019-05-15T02:15:05.216Z,8.89
2019-05-15T02:16:05.723Z,8.87
2019-05-15T02:17:08.366Z,8.74
2019-05-15T02:18:09.050Z,8.79
2019-05-15T02:19:09.485Z,8.78
2019-05-15T02:20:09.945Z,8.78
2019-05-15T02:21:10.632Z,8.74
2019-05-15T02:22:11.192Z,8.74
2019-05-15T02:23:12.075Z,8.64
2019-05-15T02:24:12.734Z,8.71
2019-05-15T02:25:13.159Z,8.68
2019-05-15T02:26:13.661Z,8.63
2019-05-15T02:27:14.081Z,8.63
2019-05-15T02:28:14.627Z,8.60
2019-05-15T02:29:18.967Z,8.60
2019-05-15T02:30:28.867Z,8.61
2019-05-15T02:31:30.204Z,8.56
2019-05-15T02:32:31.009Z,8.56
2019-05-15T02:33:31.459Z,8.54
2019-05-15T02:34:31.945Z,8.53
2019-05-15T02:35:32.385Z,8.61
2019-05-15T02:36:32.888Z,8.69
2019-05-15T02:37:33.320Z,8.59
2019-05-15T02:38:33.765Z,8.63
2019-05-15T02:39:34.198Z,8.57
2019-05-15T02:40:34.637Z,8.57
2019-05-15T02:41:35.062Z,8.57
2019-05-15T02:42:35.489Z,8.56
2019-05-15T02:43:38.706Z,8.56
2019-05-15T02:44:40.218Z,8.57
2019-05-15T02:45:42.448Z,8.46
2019-05-15T02:46:43.115Z,8.50
2019-05-15T02:47:43.543Z,8.52
2019-05-15T02:48:43.988Z,8.41
2019-05-15T02:49:44.422Z,8.52
2019-05-15T02:50:44.860Z,8.49
2019-05-15T02:51:45.306Z,8.46
2019-05-15T02:52:45.851Z,8.49
2019-05-15T02:53:49.681Z,8.50
2019-05-15T02:54:50.624Z,8.45
2019-05-15T02:55:51.063Z,8.45
2019-05-15T02:56:51.493Z,8.44
2019-05-15T02:57:51.926Z,8.38
2019-05-15T02:58:54.333Z,8.36
2019-05-15T03:00:37.979Z,8.34
2019-05-15T03:01:30.813Z,8.38
2019-05-15T03:02:41.265Z,8.32
2019-05-15T03:03:42.113Z,8.34
2019-05-15T03:04:59.698Z,8.34
2019-05-15T03:06:00.498Z,8.26
2019-05-15T03:07:39.710Z,8.21
2019-05-15T03:08:40.931Z,8.17
2019-05-15T03:10:59.344Z,8.20
2019-05-15T03:12:01.035Z,8.08
2019-05-15T03:13:01.461Z,8.06
2019-05-15T04:28:53.309Z,7.93
2019-05-15T04:29:53.831Z,7.87
2019-05-15T04:30:54.266Z,7.85
2019-05-15T04:32:01.247Z,7.98
2019-05-15T04:33:01.840Z,7.96
2019-05-15T04:34:02.349Z,7.98
2019-05-15T04:35:02.782Z,7.98
2019-05-15T04:36:03.217Z,7.96
2019-05-15T04:37:03.667Z,8.02
2019-05-15T04:38:04.104Z,7.91
2019-05-15T04:39:04.562Z,7.99
2019-05-15T04:40:04.998Z,7.99
2019-05-15T04:41:09.222Z,7.98
2019-05-15T04:42:10.218Z,8.06
2019-05-15T04:43:11.217Z,8.03
2019-05-15T04:44:11.804Z,8.02
2019-05-15T04:45:12.228Z,7.99
2019-05-15T04:46:12.673Z,8.09
2019-05-15T04:47:13.105Z,8.02
2019-05-15T04:48:13.531Z,8.05
2019-05-15T04:49:13.984Z,7.99
2019-05-15T04:50:14.417Z,7.95
2019-05-15T04:51:14.855Z,8.02
2019-05-15T04:52:15.329Z,7.98
2019-05-15T04:53:19.036Z,8.01
2019-05-15T04:54:20.228Z,8.03
2019-05-15T04:55:20.743Z,8.09
2019-05-15T04:56:21.168Z,8.06
2019-05-15T04:57:21.610Z,8.16
2019-05-15T04:58:22.052Z,8.09
2019-05-15T04:59:22.510Z,8.02
2019-05-15T05:00:22.944Z,8.11
2019-05-15T05:01:23.375Z,8.02
2019-05-15T05:02:27.073Z,8.02
2019-05-15T05:03:29.328Z,8.02
2019-05-15T05:04:51.279Z,8.09
2019-05-15T05:05:51.711Z,8.18
2019-05-15T06:00:06.036Z,9.37
2019-05-15T06:01:09.064Z,9.48
2019-05-15T06:02:09.872Z,9.36
2019-05-15T06:03:10.320Z,9.45
2019-05-15T06:04:10.754Z,9.48
2019-05-15T06:05:11.293Z,9.49
2019-05-15T06:06:11.749Z,9.59
2019-05-15T06:07:14.320Z,9.64
2019-05-15T06:08:14.984Z,9.67
2019-05-15T06:09:15.474Z,9.70
2019-05-15T06:10:18.244Z,9.64
2019-05-15T06:11:18.793Z,9.69
2019-05-15T06:12:19.217Z,9.72
2019-05-15T06:13:19.676Z,9.74
2019-05-15T06:14:20.117Z,9.82
2019-05-15T06:15:20.539Z,9.82
2019-05-15T06:16:21.022Z,9.85
2019-05-15T06:17:21.476Z,9.81
2019-05-15T06:18:21.920Z,9.87
2019-05-15T06:19:22.364Z,9.85
2019-05-15T06:20:22.789Z,9.94
2019-05-15T06:21:23.330Z,9.87
2019-05-15T06:22:23.754Z,9.88
2019-05-15T06:23:26.096Z,9.90
2019-05-15T06:24:30.378Z,10.00
2019-05-15T06:25:31.239Z,10.03
2019-05-15T06:26:31.671Z,10.00
2019-05-15T06:27:32.111Z,10.13
2019-05-15T06:28:32.550Z,10.05
2019-05-15T06:29:33.046Z,10.09
2019-05-15T06:30:33.515Z,10.17
2019-05-15T06:31:34.084Z,10.15
2019-05-15T06:32:34.524Z,10.13
2019-05-15T06:33:35.027Z,10.15
2019-05-15T06:34:37.850Z,10.27
2019-05-15T06:35:39.477Z,10.33
2019-05-15T06:36:40.023Z,10.20
2019-05-15T06:37:40.581Z,10.28
2019-05-15T06:38:41.014Z,10.24
2019-05-15T06:39:41.510Z,10.31
2019-05-15T06:40:41.959Z,10.39
2019-05-15T06:41:42.532Z,10.33
2019-05-15T06:42:42.966Z,10.36
2019-05-15T06:43:43.489Z,10.46
2019-05-15T06:44:44.093Z,10.42
2019-05-15T06:45:44.662Z,10.51
2019-05-15T06:46:45.091Z,10.53
2019-05-15T06:47:45.562Z,10.55
2019-05-15T06:48:46.001Z,10.64
2019-05-15T06:49:48.594Z,10.68
2019-05-15T06:50:49.506Z,10.75
2019-05-15T06:51:50.097Z,10.75
2019-05-15T06:52:50.560Z,10.79
2019-05-15T06:53:51.035Z,11.00
2019-05-15T06:54:51.479Z,10.95
2019-05-15T06:55:53.037Z,10.92
2019-05-15T06:56:53.501Z,10.92
2019-05-15T06:57:54.036Z,11.01
2019-05-15T06:58:54.494Z,11.00
2019-05-15T06:59:54.970Z,10.98
2019-05-15T07:00:55.820Z,11.15
2019-05-15T07:01:59.164Z,11.18
2019-05-15T07:02:59.885Z,11.13
2019-05-15T07:04:01.343Z,11.26
2019-05-15T07:05:01.775Z,11.31
2019-05-15T07:06:02.362Z,11.31
2019-05-15T07:07:02.803Z,11.26
2019-05-15T07:08:03.346Z,11.38
2019-05-15T07:09:03.812Z,11.38
2019-05-15T07:10:04.282Z,11.58
2019-05-15T07:11:04.771Z,11.41
2019-05-15T07:12:05.222Z,11.53
2019-05-15T07:13:05.652Z,11.55
2019-05-15T07:14:08.662Z,11.65
2019-05-15T07:15:09.477Z,11.70
2019-05-15T07:16:10.000Z,11.76
2019-05-15T07:17:10.430Z,11.85
2019-05-15T07:18:10.892Z,11.89
2019-05-15T07:19:11.343Z,11.91
2019-05-15T07:20:11.828Z,11.97
2019-05-15T07:21:12.301Z,12.03
2019-05-15T07:22:12.761Z,12.23
2019-05-15T07:23:13.190Z,12.15
2019-05-15T07:24:13.694Z,12.25
2019-05-15T07:25:14.135Z,12.25
2019-05-15T07:26:14.667Z,12.30
2019-05-15T07:27:15.151Z,12.45
2019-05-15T07:28:18.038Z,12.36
2019-05-15T07:29:19.103Z,12.37
2019-05-15T07:30:19.681Z,12.53
2019-05-15T07:31:20.125Z,12.57
2019-05-15T07:32:20.605Z,12.63
2019-05-15T07:33:35.678Z,12.69
2019-05-15T07:34:28.390Z,12.63
2019-05-15T07:35:29.031Z,12.80
2019-05-15T07:36:29.602Z,12.80
2019-05-15T07:37:30.180Z,12.80
2019-05-15T07:38:30.625Z,12.86
2019-05-15T07:39:32.161Z,12.83
2019-05-15T07:40:32.605Z,12.93
2019-05-15T07:41:33.075Z,13.02
2019-05-15T07:42:33.551Z,13.06
2019-05-15T07:43:34.025Z,13.08
2019-05-15T07:44:34.455Z,13.12
2019-05-15T07:45:34.885Z,13.16
2019-05-15T07:46:35.540Z,13.24
2019-05-15T07:47:38.303Z,13.19
2019-05-15T07:48:39.097Z,13.24
2019-05-15T07:49:39.581Z,13.21
2019-05-15T07:50:40.034Z,13.12
2019-05-15T07:51:40.497Z,13.17
2019-05-15T07:52:40.926Z,13.16
2019-05-15T07:53:41.357Z,13.24
2019-05-15T07:54:41.858Z,13.24
2019-05-15T07:55:42.291Z,13.26
2019-05-15T07:56:42.745Z,13.24
2019-05-15T07:57:43.173Z,13.17
2019-05-15T07:58:43.608Z,13.17
2019-05-15T07:59:44.041Z,13.20
2019-05-15T08:00:44.778Z,13.20
2019-05-15T08:01:45.247Z,13.20
2019-05-15T08:02:47.838Z,13.12
2019-05-15T08:03:58.799Z,13.20
2019-05-15T08:04:55.077Z,13.30
2019-05-15T08:06:01.958Z,13.28
2019-05-15T08:07:01.934Z,13.33
2019-05-15T08:08:02.361Z,13.39
2019-05-15T08:09:02.796Z,13.36
2019-05-15T08:10:03.259Z,13.33
2019-05-15T08:11:16.273Z,13.31
2019-05-15T08:12:10.112Z,13.30
2019-05-15T08:13:10.549Z,13.27
2019-05-15T08:14:10.977Z,13.40
2019-05-15T08:15:11.407Z,13.43
2019-05-15T08:16:11.901Z,13.33
2019-05-15T08:17:12.349Z,13.49
2019-05-15T08:18:13.469Z,13.46
2019-05-15T08:19:13.915Z,13.47
2019-05-15T08:20:14.826Z,13.49
2019-05-15T08:21:15.248Z,13.42
2019-05-15T08:22:18.189Z,13.54
2019-05-15T08:23:19.408Z,13.60
2019-05-15T08:24:20.086Z,13.58
2019-05-15T08:25:30.460Z,13.57
2019-05-15T08:26:28.324Z,13.60
2019-05-15T08:27:29.922Z,13.61
2019-05-15T08:28:30.513Z,13.67
2019-05-15T08:29:30.944Z,13.67
2019-05-15T08:30:31.495Z,13.70
2019-05-15T08:31:31.917Z,13.67
2019-05-15T08:32:32.415Z,13.60
2019-05-15T08:33:32.921Z,13.60
2019-05-15T08:34:33.361Z,13.73
2019-05-15T08:35:33.793Z,13.65
2019-05-15T08:36:34.995Z,13.67
2019-05-15T08:37:35.450Z,13.68
2019-05-15T08:38:38.159Z,13.68
2019-05-15T08:39:38.872Z,13.73
2019-05-15T08:40:40.984Z,13.76
2019-05-15T08:41:41.781Z,13.80
2019-05-15T08:42:42.255Z,13.76
2019-05-15T08:43:43.119Z,13.79
2019-05-15T08:44:43.544Z,13.82
2019-05-15T08:45:43.980Z,13.79
2019-05-15T08:46:44.493Z,13.83
2019-05-15T08:47:44.946Z,13.85
2019-05-15T08:48:45.390Z,13.89
2019-05-15T08:49:45.925Z,13.94
2019-05-15T08:50:48.547Z,14.04
2019-05-15T08:51:49.457Z,13.97
2019-05-15T08:52:49.982Z,14.03
2019-05-15T08:53:50.415Z,14.05
2019-05-15T08:54:50.871Z,14.03
2019-05-15T08:55:53.261Z,14.08
2019-05-15T08:56:54.781Z,14.13
2019-05-15T08:57:56.617Z,14.18
2019-05-15T08:59:01.649Z,14.15
2019-05-15T09:00:02.123Z,14.08
2019-05-15T09:01:02.571Z,14.13
2019-05-15T09:02:04.065Z,14.22
2019-05-15T09:03:04.521Z,14.08
2019-05-15T09:04:04.965Z,14.22
2019-05-15T09:05:05.413Z,14.20
2019-05-15T09:06:05.897Z,14.18
2019-05-15T09:07:08.958Z,14.30
2019-05-15T09:08:09.832Z,14.28
2019-05-15T09:09:11.422Z,14.25
2019-05-15T09:10:11.991Z,14.31
2019-05-15T09:11:12.517Z,14.37
2019-05-15T09:12:12.952Z,14.26
2019-05-15T09:13:14.528Z,14.23
2019-05-15T09:14:14.959Z,14.45
2019-05-15T09:15:24.325Z,14.40
2019-05-15T09:16:24.757Z,14.48
2019-05-15T09:17:25.283Z,14.49
2019-05-15T09:18:28.205Z,14.44
2019-05-15T09:19:30.398Z,14.45
2019-05-15T09:20:30.847Z,14.48
2019-05-15T09:21:39.829Z,14.58
2019-05-15T09:22:40.313Z,14.56
2019-05-15T09:23:40.761Z,14.61
2019-05-15T09:24:48.660Z,14.59
2019-05-15T09:25:50.409Z,14.58
2019-05-15T09:26:50.849Z,14.73
2019-05-15T09:27:57.916Z,14.78
2019-05-15T09:28:58.695Z,14.86
2019-05-15T09:30:01.200Z,14.82
2019-05-15T09:31:01.631Z,14.89
2019-05-15T09:32:12.587Z,14.85
2019-05-15T09:33:13.165Z,14.82
2019-05-15T09:34:21.278Z,14.86
2019-05-15T09:35:21.700Z,14.93
2019-05-15T09:36:22.213Z,14.97
2019-05-15T09:37:22.656Z,14.92
2019-05-15T09:38:44.085Z,14.92
2019-05-15T09:39:44.524Z,14.92
2019-05-15T09:41:14.775Z,14.97
2019-05-15T09:42:15.227Z,14.92
2019-05-15T09:43:42.899Z,14.94
2019-05-15T09:44:43.339Z,14.93
2019-05-15T09:45:45.833Z,14.92
2019-05-15T09:46:48.761Z,14.93
2019-05-15T09:47:49.355Z,15.05
2019-05-15T09:48:51.943Z,15.18
2019-05-15T09:49:53.744Z,15.11
2019-05-15T09:50:54.171Z,15.18
2019-05-15T09:51:54.802Z,15.25
2019-05-15T09:52:55.274Z,15.29
2019-05-15T09:53:55.830Z,15.37
2019-05-15T09:54:59.118Z,15.41
2019-05-15T09:56:00.153Z,15.47
2019-05-15T09:57:00.668Z,15.48
2019-05-15T09:58:01.120Z,15.60
2019-05-15T09:59:09.416Z,15.73
2019-05-15T10:00:09.854Z,15.63
2019-05-15T10:01:11.328Z,15.70
2019-05-15T10:02:11.767Z,15.69
2019-05-15T10:03:12.210Z,15.73
2019-05-15T10:04:12.650Z,15.70
2019-05-15T10:05:13.076Z,15.83
2019-05-15T10:06:13.509Z,15.78
2019-05-15T10:07:14.031Z,15.90
2019-05-15T10:08:14.494Z,16.02
2019-05-15T10:09:14.923Z,16.02
2019-05-15T10:10:32.282Z,16.02
2019-05-15T10:11:32.752Z,16.05
2019-05-15T10:12:35.219Z,16.05
2019-05-15T10:13:38.247Z,16.08
2019-05-15T10:14:38.971Z,16.12
2019-05-15T10:15:39.418Z,16.22
2019-05-15T10:16:39.899Z,16.24
2019-05-15T10:17:40.327Z,16.18
2019-05-15T10:18:40.881Z,16.17
2019-05-15T10:19:41.307Z,16.25
2019-05-15T10:20:58.086Z,16.25
2019-05-15T10:21:59.479Z,16.28
2019-05-15T10:23:01.251Z,16.28
2019-05-15T10:24:01.721Z,16.32
2019-05-15T10:25:02.184Z,16.31
2019-05-15T10:26:02.635Z,16.34
2019-05-15T10:27:03.102Z,16.26
2019-05-15T10:28:05.697Z,16.37
2019-05-15T10:29:08.958Z,16.39
2019-05-15T10:30:09.809Z,16.37
2019-05-15T10:31:10.276Z,16.44
2019-05-15T10:32:10.829Z,16.39
2019-05-15T10:33:11.293Z,16.57
2019-05-15T10:34:11.749Z,16.49
2019-05-15T10:35:24.626Z,16.62
2019-05-15T10:36:19.077Z,16.57
2019-05-15T10:37:19.671Z,16.58
2019-05-15T10:38:20.134Z,16.58
2019-05-15T10:39:20.582Z,16.51
2019-05-15T10:40:21.020Z,16.54
2019-05-15T10:41:21.453Z,16.62
2019-05-15T10:42:21.893Z,16.59
2019-05-15T10:43:22.364Z,16.58
2019-05-15T10:44:22.797Z,16.64
2019-05-15T10:45:23.242Z,16.68
2019-05-15T10:46:23.671Z,16.76
2019-05-15T10:47:24.094Z,16.72
2019-05-15T10:48:24.568Z,16.76
2019-05-15T10:49:25.181Z,16.74
2019-05-15T10:50:28.161Z,16.80
2019-05-15T10:51:28.988Z,16.77
2019-05-15T10:52:29.425Z,16.74
2019-05-15T10:53:29.962Z,16.73
2019-05-15T10:54:30.382Z,16.80
2019-05-15T10:55:30.806Z,16.83
2019-05-15T10:56:31.235Z,16.83
2019-05-15T10:57:31.676Z,16.95
2019-05-15T10:58:32.208Z,17.01
2019-05-15T10:59:32.713Z,17.01
2019-05-15T11:00:33.136Z,17.04
2019-05-15T11:01:33.574Z,17.05
2019-05-15T11:02:34.084Z,17.14
2019-05-15T11:03:35.176Z,17.20
2019-05-15T11:04:35.689Z,17.22
2019-05-15T11:05:44.464Z,17.24
2019-05-15T11:06:42.526Z,17.28
2019-05-15T11:07:43.021Z,17.30
2019-05-15T11:08:43.464Z,17.20
2019-05-15T11:09:43.964Z,17.19
2019-05-15T11:10:44.395Z,17.13
2019-05-15T11:11:44.817Z,17.07
2019-05-15T11:12:45.243Z,17.09
2019-05-15T11:13:45.765Z,17.10
2019-05-15T11:14:46.205Z,17.01
2019-05-15T11:15:48.902Z,17.14
2019-05-15T11:16:49.744Z,17.05
2019-05-15T11:17:50.185Z,17.20
2019-05-15T11:18:53.402Z,17.22
2019-05-15T11:19:54.086Z,17.35
2019-05-15T11:20:54.585Z,17.34
2019-05-15T11:21:55.085Z,17.37
2019-05-15T11:22:55.535Z,17.34
2019-05-15T11:23:58.863Z,17.41
2019-05-15T11:24:59.606Z,17.47
2019-05-15T11:26:00.058Z,17.44
2019-05-15T11:27:00.561Z,17.38
2019-05-15T11:28:01.053Z,17.41
2019-05-15T11:29:01.509Z,17.53
2019-05-15T11:30:01.950Z,17.47
2019-05-15T11:31:02.420Z,17.44
2019-05-15T11:32:02.890Z,17.39
2019-05-15T11:33:03.407Z,17.39
2019-05-15T11:34:03.899Z,17.46
2019-05-15T11:35:04.778Z,17.41
2019-05-15T11:36:06.245Z,17.56
2019-05-15T11:37:06.877Z,17.47
2019-05-15T11:38:10.124Z,17.59
2019-05-15T11:39:10.868Z,17.76
2019-05-15T11:40:28.352Z,17.69
2019-05-15T11:41:29.688Z,17.57
2019-05-15T11:42:52.266Z,17.68
2019-05-15T11:43:52.732Z,17.71
2019-05-15T11:45:00.778Z,17.80
2019-05-15T11:46:01.210Z,17.78
2019-05-15T11:48:49.548Z,17.82
2019-05-15T11:50:00.336Z,17.75
2019-05-15T11:51:00.771Z,17.91
2019-05-15T11:52:08.756Z,17.97
2019-05-15T11:53:09.303Z,17.97
2019-05-15T11:54:09.762Z,18.09
2019-05-15T11:55:10.187Z,18.13
2019-05-15T11:56:39.493Z,18.09
2019-05-15T11:57:46.810Z,18.28
2019-05-15T11:59:11.880Z,18.21
2019-05-15T12:00:17.152Z,18.41
2019-05-15T12:01:25.758Z,18.43
2019-05-15T12:02:29.143Z,18.60
2019-05-15T12:03:29.872Z,18.66
2019-05-15T12:04:34.024Z,18.63
2019-05-15T12:05:43.817Z,18.68
2019-05-15T12:06:58.246Z,18.76
2019-05-15T12:07:52.755Z,18.92
2019-05-15T12:08:53.194Z,18.94
2019-05-15T12:09:54.742Z,19.09
2019-05-15T12:10:55.455Z,19.17
2019-05-15T12:12:03.824Z,19.41
2019-05-15T12:13:04.256Z,19.74
2019-05-15T12:14:04.684Z,19.99
2019-05-15T12:15:05.133Z,20.32
2019-05-15T12:16:05.565Z,20.58
2019-05-15T12:17:12.433Z,20.88
2019-05-15T12:18:12.409Z,21.33
2019-05-15T12:19:21.834Z,21.51
2019-05-15T12:20:22.277Z,21.75
2019-05-15T12:21:23.766Z,22.04
2019-05-15T12:22:24.189Z,22.25
2019-05-15T12:23:25.719Z,22.53
2019-05-15T12:24:32.798Z,22.76
2019-05-15T12:25:32.617Z,22.71
2019-05-15T12:26:41.895Z,22.73
2019-05-15T12:27:42.388Z,22.80
2019-05-15T12:28:42.822Z,23.11
2019-05-15T12:29:43.338Z,23.29
2019-05-15T12:30:43.786Z,23.40
2019-05-15T12:32:23.550Z,23.56
2019-05-15T12:33:12.729Z,23.66
2019-05-15T12:34:13.194Z,23.74
2019-05-15T12:35:13.653Z,23.85
2019-05-15T12:36:50.142Z,24.04
2019-05-15T12:37:35.170Z,24.13
2019-05-15T12:38:43.330Z,24.11
2019-05-15T12:39:43.780Z,24.28
2019-05-15T12:59:59.320Z,26.31
2019-05-15T13:00:59.880Z,26.39
2019-05-15T13:02:00.330Z,26.39
2019-05-15T13:03:00.905Z,26.39
2019-05-15T13:04:01.342Z,26.55
2019-05-15T13:05:01.872Z,26.71
2019-05-15T13:06:02.299Z,26.76
2019-05-15T13:07:12.843Z,26.70
2019-05-15T13:08:09.292Z,26.52
2019-05-15T13:09:09.851Z,26.41
2019-05-15T13:10:10.313Z,26.26
2019-05-15T13:11:14.974Z,25.81
2019-05-15T13:12:18.070Z,25.36
2019-05-15T13:13:18.892Z,24.92
2019-05-15T13:14:19.451Z,24.77
2019-05-15T13:15:19.987Z,24.62
2019-05-15T13:16:20.435Z,24.53
2019-05-15T13:17:20.969Z,24.46
2019-05-15T13:18:21.411Z,24.31
2019-05-15T13:19:21.909Z,24.14
2019-05-15T13:20:22.367Z,24.18
2019-05-15T13:21:23.252Z,24.14
2019-05-15T13:22:24.800Z,24.10
2019-05-15T13:23:25.413Z,24.11
2019-05-15T13:24:28.199Z,24.01
2019-05-15T13:25:28.953Z,24.09
2019-05-15T13:26:29.379Z,24.25
2019-05-15T13:27:29.955Z,24.38
2019-05-15T13:28:30.408Z,24.32
2019-05-15T13:29:30.994Z,24.11
2019-05-15T13:30:31.447Z,23.82
2019-05-15T13:31:32.019Z,23.51
2019-05-15T13:32:32.470Z,23.47
2019-05-15T13:33:33.059Z,23.18
2019-05-15T13:34:33.488Z,23.04
2019-05-15T13:35:34.029Z,23.11
2019-05-15T13:36:34.471Z,23.20
2019-05-15T13:37:35.048Z,22.95
2019-05-15T13:38:35.482Z,22.86
2019-05-15T13:39:36.078Z,22.68
2019-05-15T13:40:38.926Z,22.56
2019-05-15T13:41:43.123Z,22.74
2019-05-15T13:42:43.570Z,22.68
2019-05-15T13:43:44.056Z,22.31
2019-05-15T13:44:44.520Z,22.21
2019-05-15T13:45:45.027Z,22.23
2019-05-15T13:46:45.464Z,22.53
2019-05-15T13:47:46.023Z,22.73
2019-05-15T13:48:48.836Z,22.95
2019-05-15T13:49:49.650Z,23.11
2019-05-15T13:50:50.127Z,23.28
2019-05-15T13:51:50.658Z,23.47
2019-05-15T13:52:51.104Z,23.56
2019-05-15T13:53:53.617Z,23.66
2019-05-15T13:54:54.203Z,23.73
2019-05-15T13:55:54.730Z,23.92
2019-05-15T13:56:55.170Z,24.01
2019-05-15T13:58:02.391Z,24.18
2019-05-15T13:59:02.852Z,24.28
2019-05-15T14:00:03.404Z,24.50
2019-05-15T14:01:04.164Z,24.74
2019-05-15T14:02:04.631Z,24.86
2019-05-15T14:03:05.134Z,25.11
2019-05-15T14:04:08.361Z,24.96
2019-05-15T14:05:09.747Z,24.71
2019-05-15T14:06:10.453Z,24.51
2019-05-15T14:07:10.906Z,24.10
2019-05-15T14:08:12.453Z,23.89
2019-05-15T14:09:12.912Z,23.62
2019-05-15T14:10:13.397Z,23.32
2019-05-15T14:11:13.877Z,23.17
2019-05-15T14:12:15.480Z,23.08
2019-05-15T14:13:15.932Z,22.88
2019-05-15T14:14:17.117Z,22.53
2019-05-15T14:15:17.555Z,22.51
2019-05-15T14:16:19.232Z,22.33
2019-05-15T14:17:19.863Z,22.71
2019-05-15T14:18:20.408Z,22.83
2019-05-15T14:19:20.874Z,23.10
2019-05-15T14:20:22.385Z,22.95
2019-05-15T14:21:22.876Z,22.83
2019-05-15T14:22:23.415Z,23.14
2019-05-15T14:23:23.847Z,23.06
2019-05-15T14:24:24.342Z,22.99
2019-05-15T14:25:24.806Z,22.84
2019-05-15T14:26:25.303Z,22.67
2019-05-15T14:27:28.325Z,22.43
2019-05-15T14:28:30.626Z,22.38
2019-05-15T14:29:31.094Z,22.19
2019-05-15T14:30:31.686Z,21.89
2019-05-15T14:31:32.135Z,21.74
2019-05-15T14:32:38.239Z,21.54
2019-05-15T14:33:39.103Z,21.37
2019-05-15T14:34:39.663Z,21.04
2019-05-15T14:35:40.148Z,21.38
2019-05-15T14:36:40.706Z,21.72
2019-05-15T14:37:41.407Z,22.06
2019-05-15T14:38:41.940Z,22.49
2019-05-15T14:39:42.386Z,22.81
2019-05-15T14:40:42.913Z,22.96
2019-05-15T14:41:43.391Z,22.92
2019-05-15T14:42:43.919Z,22.84
2019-05-15T14:43:44.384Z,22.88
2019-05-15T14:44:44.950Z,22.95
2019-05-15T14:45:47.670Z,22.78
2019-05-15T14:46:50.814Z,22.46
2019-05-15T14:47:51.515Z,22.36
2019-05-15T14:48:52.049Z,22.43
2019-05-15T14:49:52.493Z,22.47
2019-05-15T14:50:52.997Z,22.43
2019-05-15T14:52:05.666Z,22.56
2019-05-15T14:52:59.864Z,22.52
2019-05-15T14:54:01.406Z,22.43
2019-05-15T14:55:01.873Z,22.34
2019-05-15T14:56:03.586Z,22.07
2019-05-15T14:57:04.041Z,21.96
2019-05-15T14:58:04.597Z,21.66
2019-05-15T14:59:05.043Z,21.59
2019-05-15T15:00:05.634Z,21.38
2019-05-15T15:01:11.534Z,21.22
2019-05-15T15:02:12.609Z,21.05
2019-05-15T15:03:13.066Z,20.89
2019-05-15T15:04:13.510Z,20.67
2019-05-15T15:05:15.039Z,20.55
2019-05-15T15:06:18.023Z,20.58
2019-05-15T15:07:18.963Z,20.40
2019-05-15T15:08:25.041Z,20.42
2019-05-15T15:09:28.089Z,20.46
2019-05-15T15:10:29.253Z,20.49
2019-05-15T15:11:29.844Z,20.52
2019-05-15T15:12:30.296Z,20.40
2019-05-15T15:13:30.847Z,20.40
2019-05-15T15:14:31.318Z,20.39
2019-05-15T15:15:31.857Z,20.36
2019-05-15T15:16:32.312Z,20.29
2019-05-15T15:17:32.773Z,20.24
2019-05-15T15:18:33.335Z,20.02
2019-05-15T15:19:33.787Z,19.94
2019-05-15T15:20:34.236Z,19.87
2019-05-15T15:21:34.855Z,19.70
2019-05-15T15:22:35.311Z,19.70
2019-05-15T15:23:35.824Z,19.70
2019-05-15T15:24:39.034Z,19.67
2019-05-15T15:25:39.939Z,19.63
2019-05-15T15:26:40.445Z,19.52
2019-05-15T15:27:40.988Z,19.53
2019-05-15T15:28:41.461Z,19.55
2019-05-15T15:29:42.033Z,19.47
2019-05-15T15:30:42.521Z,19.34
2019-05-15T15:31:43.093Z,19.11
2019-05-15T15:32:43.782Z,19.19
2019-05-15T15:33:44.300Z,18.98
2019-05-15T15:34:44.755Z,18.94
2019-05-15T15:35:45.220Z,18.92
2019-05-15T15:36:45.695Z,18.81
2019-05-15T15:37:48.546Z,18.76
2019-05-15T15:38:49.181Z,18.83
2019-05-15T15:39:49.664Z,18.78
2019-05-15T15:40:50.111Z,18.81
2019-05-15T15:41:50.940Z,18.81
2019-05-15T15:42:51.397Z,18.79
2019-05-15T15:43:52.408Z,18.78
2019-05-15T15:44:52.925Z,18.78
2019-05-15T15:45:53.516Z,18.92
2019-05-15T15:46:53.995Z,18.76
2019-05-15T15:47:54.535Z,18.70
2019-05-15T15:48:54.988Z,18.61
2019-05-15T15:49:58.116Z,18.58
2019-05-15T15:50:59.018Z,18.55